POGODA: Poland

Lotnisko: Katowice

METAR KOD: EPKT


METAR: EPKT 301600Z 24006KT 9999 FEW040 22/12 Q1017


BLOK
Pogoda METAR
301600Z
Dzien: 30, Godzina: 16:00 UTC.
24006KT
Wiatr z kierunku 240, o predkosci 11 km/h
9999
Widzialnosc pozioma ponad 10 km.
FEW040
1/8 - 2/8 pokrycia nieba, chmurami o podstawie: 1200 metrow
22/12
Temperatura: powietrze 22°C, punkt rosy 12°C . Wilgotnosc wzgledna 55 %
Q1017
Cisnienie: 1017 hPa

Pogoda na innym lotnisku

Pogoda Gdansk-Rebiechowo WEATHER Poland  
Pogoda Katowice WEATHER Poland  
Pogoda Krakow WEATHER Poland  
Pogoda Poznan WEATHER Poland  
Pogoda Rzeszow-Jasionka WEATHER Poland  
Pogoda Szczecin WEATHER Poland  
Pogoda Warszawa-Okecie WEATHER Poland  
Pogoda Wroclaw Ii WEATHER Poland  

Pogoda w inny kraju

Strona startowa

(C) by GREGOR 2007
Ogłoszenia Towarzyskie